sensor_id;sensor_type;location;lat;lon;timestamp;temperature;humidity
67273;DHT22;54190;49.770;9.250;2024-01-15T00:01:58;-2.50;99.90
67273;DHT22;54190;49.770;9.250;2024-01-15T00:04:23;-2.60;99.90
67273;DHT22;54190;49.770;9.250;2024-01-15T00:06:50;-2.60;99.90
67273;DHT22;54190;49.770;9.250;2024-01-15T00:09:15;-2.60;99.90
67273;DHT22;54190;49.770;9.250;2024-01-15T00:11:42;-2.50;99.90
67273;DHT22;54190;49.770;9.250;2024-01-15T00:14:08;-2.60;99.90
67273;DHT22;54190;49.770;9.250;2024-01-15T00:16:34;-2.50;99.90
67273;DHT22;54190;49.770;9.250;2024-01-15T00:19:00;-2.50;99.90
67273;DHT22;54190;49.770;9.250;2024-01-15T00:21:25;-2.60;99.90
67273;DHT22;54190;49.770;9.250;2024-01-15T00:23:51;-2.60;99.90
67273;DHT22;54190;49.770;9.250;2024-01-15T00:26:17;-2.70;99.90
67273;DHT22;54190;49.770;9.250;2024-01-15T00:28:43;-2.70;99.90
67273;DHT22;54190;49.770;9.250;2024-01-15T00:31:08;-2.70;99.90
67273;DHT22;54190;49.770;9.250;2024-01-15T00:33:34;-2.70;99.90
67273;DHT22;54190;49.770;9.250;2024-01-15T00:36:00;-2.60;99.90
67273;DHT22;54190;49.770;9.250;2024-01-15T00:38:26;-2.60;99.90
67273;DHT22;54190;49.770;9.250;2024-01-15T00:40:52;-2.60;99.90
67273;DHT22;54190;49.770;9.250;2024-01-15T00:43:18;-2.60;99.90
67273;DHT22;54190;49.770;9.250;2024-01-15T00:45:44;-2.60;99.90
67273;DHT22;54190;49.770;9.250;2024-01-15T00:48:10;-2.60;99.90
67273;DHT22;54190;49.770;9.250;2024-01-15T00:50:36;-2.60;99.90
67273;DHT22;54190;49.770;9.250;2024-01-15T00:53:02;-2.60;99.90
67273;DHT22;54190;49.770;9.250;2024-01-15T00:55:28;-2.60;99.90
67273;DHT22;54190;49.770;9.250;2024-01-15T00:57:54;-2.60;99.90
67273;DHT22;54190;49.770;9.250;2024-01-15T01:00:21;-2.60;99.90
67273;DHT22;54190;49.770;9.250;2024-01-15T01:02:46;-2.50;99.90
67273;DHT22;54190;49.770;9.250;2024-01-15T01:05:12;-2.50;99.90
67273;DHT22;54190;49.770;9.250;2024-01-15T01:07:38;-2.50;99.90
67273;DHT22;54190;49.770;9.250;2024-01-15T01:10:04;-2.50;99.90
67273;DHT22;54190;49.770;9.250;2024-01-15T01:12:30;-2.50;99.90
67273;DHT22;54190;49.770;9.250;2024-01-15T01:14:56;-2.50;99.90
67273;DHT22;54190;49.770;9.250;2024-01-15T01:17:22;-2.60;99.90
67273;DHT22;54190;49.770;9.250;2024-01-15T01:19:49;-2.50;99.90
67273;DHT22;54190;49.770;9.250;2024-01-15T01:22:15;-2.50;99.90
67273;DHT22;54190;49.770;9.250;2024-01-15T01:24:40;-2.40;99.90
67273;DHT22;54190;49.770;9.250;2024-01-15T01:27:06;-2.60;99.90
67273;DHT22;54190;49.770;9.250;2024-01-15T01:29:32;-2.50;99.90
67273;DHT22;54190;49.770;9.250;2024-01-15T01:31:58;-2.50;99.90
67273;DHT22;54190;49.770;9.250;2024-01-15T01:34:24;-2.50;99.90
67273;DHT22;54190;49.770;9.250;2024-01-15T01:36:50;-2.50;99.90
67273;DHT22;54190;49.770;9.250;2024-01-15T01:39:15;-2.60;99.90
67273;DHT22;54190;49.770;9.250;2024-01-15T01:41:41;-2.60;99.90
67273;DHT22;54190;49.770;9.250;2024-01-15T01:44:07;-2.60;99.90
67273;DHT22;54190;49.770;9.250;2024-01-15T01:46:33;-2.70;99.90
67273;DHT22;54190;49.770;9.250;2024-01-15T01:49:00;-2.70;99.90
67273;DHT22;54190;49.770;9.250;2024-01-15T01:51:31;-2.70;99.90
67273;DHT22;54190;49.770;9.250;2024-01-15T01:53:57;-2.80;99.90
67273;DHT22;54190;49.770;9.250;2024-01-15T01:56:23;-2.80;99.90
67273;DHT22;54190;49.770;9.250;2024-01-15T01:58:49;-2.70;99.90
67273;DHT22;54190;49.770;9.250;2024-01-15T02:01:15;-2.70;99.90
67273;DHT22;54190;49.770;9.250;2024-01-15T02:03:43;-2.70;99.90
67273;DHT22;54190;49.770;9.250;2024-01-15T02:06:09;-2.60;99.90
67273;DHT22;54190;49.770;9.250;2024-01-15T02:08:35;-2.60;99.90
67273;DHT22;54190;49.770;9.250;2024-01-15T02:11:01;-2.60;99.90
67273;DHT22;54190;49.770;9.250;2024-01-15T02:13:27;-2.60;99.90
67273;DHT22;54190;49.770;9.250;2024-01-15T02:15:53;-2.50;99.90
67273;DHT22;54190;49.770;9.250;2024-01-15T02:18:18;-2.60;99.90
67273;DHT22;54190;49.770;9.250;2024-01-15T02:20:45;-2.60;99.90
67273;DHT22;54190;49.770;9.250;2024-01-15T02:23:13;-2.50;99.90
67273;DHT22;54190;49.770;9.250;2024-01-15T02:25:42;-2.50;99.90
67273;DHT22;54190;49.770;9.250;2024-01-15T02:28:11;-2.50;99.90
67273;DHT22;54190;49.770;9.250;2024-01-15T02:30:38;-2.40;99.90
67273;DHT22;54190;49.770;9.250;2024-01-15T02:33:07;-2.50;99.90
67273;DHT22;54190;49.770;9.250;2024-01-15T02:35:34;-2.50;99.90
67273;DHT22;54190;49.770;9.250;2024-01-15T02:38:05;-2.30;99.90
67273;DHT22;54190;49.770;9.250;2024-01-15T02:40:31;-2.40;99.90
67273;DHT22;54190;49.770;9.250;2024-01-15T02:42:57;-2.40;99.90
67273;DHT22;54190;49.770;9.250;2024-01-15T02:45:23;-2.30;99.90
67273;DHT22;54190;49.770;9.250;2024-01-15T02:47:49;-2.30;99.90
67273;DHT22;54190;49.770;9.250;2024-01-15T02:50:16;-2.30;99.90
67273;DHT22;54190;49.770;9.250;2024-01-15T02:52:42;-2.30;99.90
67273;DHT22;54190;49.770;9.250;2024-01-15T02:55:08;-2.30;99.90
67273;DHT22;54190;49.770;9.250;2024-01-15T02:57:34;-2.30;99.90
67273;DHT22;54190;49.770;9.250;2024-01-15T03:00:00;-2.20;99.90
67273;DHT22;54190;49.770;9.250;2024-01-15T03:02:26;-2.20;99.90
67273;DHT22;54190;49.770;9.250;2024-01-15T03:04:51;-2.20;99.90
67273;DHT22;54190;49.770;9.250;2024-01-15T03:07:17;-2.20;99.90
67273;DHT22;54190;49.770;9.250;2024-01-15T03:09:43;-2.20;99.90
67273;DHT22;54190;49.770;9.250;2024-01-15T03:12:09;-2.10;99.90
67273;DHT22;54190;49.770;9.250;2024-01-15T03:14:38;-2.10;99.90
67273;DHT22;54190;49.770;9.250;2024-01-15T03:17:03;-2.10;99.90
67273;DHT22;54190;49.770;9.250;2024-01-15T03:19:29;-2.10;99.90
67273;DHT22;54190;49.770;9.250;2024-01-15T03:21:56;-2.10;99.90
67273;DHT22;54190;49.770;9.250;2024-01-15T03:24:22;-2.10;99.90
67273;DHT22;54190;49.770;9.250;2024-01-15T03:26:47;-2.00;99.90
67273;DHT22;54190;49.770;9.250;2024-01-15T03:29:13;-2.10;99.90
67273;DHT22;54190;49.770;9.250;2024-01-15T03:31:39;-2.10;99.90
67273;DHT22;54190;49.770;9.250;2024-01-15T03:34:05;-2.10;99.90
67273;DHT22;54190;49.770;9.250;2024-01-15T03:36:30;-2.10;99.90
67273;DHT22;54190;49.770;9.250;2024-01-15T03:38:56;-2.10;99.90
67273;DHT22;54190;49.770;9.250;2024-01-15T03:41:22;-2.10;99.90
67273;DHT22;54190;49.770;9.250;2024-01-15T03:43:48;-2.10;99.90
67273;DHT22;54190;49.770;9.250;2024-01-15T03:46:13;-2.10;99.90
67273;DHT22;54190;49.770;9.250;2024-01-15T03:48:39;-2.10;99.90
67273;DHT22;54190;49.770;9.250;2024-01-15T03:51:05;-2.00;99.90
67273;DHT22;54190;49.770;9.250;2024-01-15T03:53:31;-2.00;99.90
67273;DHT22;54190;49.770;9.250;2024-01-15T03:55:56;-2.00;99.90
67273;DHT22;54190;49.770;9.250;2024-01-15T03:58:22;-2.00;99.90
67273;DHT22;54190;49.770;9.250;2024-01-15T04:00:48;-2.00;99.90
67273;DHT22;54190;49.770;9.250;2024-01-15T04:03:14;-2.00;99.90
67273;DHT22;54190;49.770;9.250;2024-01-15T04:05:40;-1.90;99.90
67273;DHT22;54190;49.770;9.250;2024-01-15T04:08:05;-1.90;99.90
67273;DHT22;54190;49.770;9.250;2024-01-15T04:10:31;-1.90;99.90
67273;DHT22;54190;49.770;9.250;2024-01-15T04:12:57;-1.90;99.90
67273;DHT22;54190;49.770;9.250;2024-01-15T04:15:25;-1.90;99.90
67273;DHT22;54190;49.770;9.250;2024-01-15T04:17:51;-1.90;99.90
67273;DHT22;54190;49.770;9.250;2024-01-15T04:20:17;-1.90;99.90
67273;DHT22;54190;49.770;9.250;2024-01-15T04:22:44;-1.90;99.90
67273;DHT22;54190;49.770;9.250;2024-01-15T04:25:09;-1.90;99.90
67273;DHT22;54190;49.770;9.250;2024-01-15T04:27:35;-1.80;99.90
67273;DHT22;54190;49.770;9.250;2024-01-15T04:30:01;-1.80;99.90
67273;DHT22;54190;49.770;9.250;2024-01-15T04:32:27;-1.80;99.90
67273;DHT22;54190;49.770;9.250;2024-01-15T04:34:52;-1.80;99.90
67273;DHT22;54190;49.770;9.250;2024-01-15T04:37:18;-1.80;99.90
67273;DHT22;54190;49.770;9.250;2024-01-15T04:39:44;-1.70;99.90
67273;DHT22;54190;49.770;9.250;2024-01-15T04:42:10;-1.70;99.90
67273;DHT22;54190;49.770;9.250;2024-01-15T04:44:36;-1.70;99.90
67273;DHT22;54190;49.770;9.250;2024-01-15T04:47:02;-1.60;99.90
67273;DHT22;54190;49.770;9.250;2024-01-15T04:49:27;-1.60;99.90
67273;DHT22;54190;49.770;9.250;2024-01-15T04:51:55;-1.60;99.90
67273;DHT22;54190;49.770;9.250;2024-01-15T04:54:20;-1.70;99.90
67273;DHT22;54190;49.770;9.250;2024-01-15T04:56:46;-1.70;99.90
67273;DHT22;54190;49.770;9.250;2024-01-15T04:59:13;-1.70;99.90
67273;DHT22;54190;49.770;9.250;2024-01-15T05:01:40;-1.70;99.90
67273;DHT22;54190;49.770;9.250;2024-01-15T05:04:05;-1.70;99.90
67273;DHT22;54190;49.770;9.250;2024-01-15T05:06:31;-1.70;99.90
67273;DHT22;54190;49.770;9.250;2024-01-15T05:08:57;-1.70;99.90
67273;DHT22;54190;49.770;9.250;2024-01-15T05:11:23;-1.70;99.90
67273;DHT22;54190;49.770;9.250;2024-01-15T05:13:49;-1.70;99.90
67273;DHT22;54190;49.770;9.250;2024-01-15T05:16:14;-1.70;99.90
67273;DHT22;54190;49.770;9.250;2024-01-15T05:18:40;-1.70;99.90
67273;DHT22;54190;49.770;9.250;2024-01-15T05:21:06;-1.70;99.90
67273;DHT22;54190;49.770;9.250;2024-01-15T05:23:32;-1.70;99.90
67273;DHT22;54190;49.770;9.250;2024-01-15T05:25:57;-1.70;99.90
67273;DHT22;54190;49.770;9.250;2024-01-15T05:28:23;-1.70;99.90
67273;DHT22;54190;49.770;9.250;2024-01-15T05:30:49;-1.70;99.90
67273;DHT22;54190;49.770;9.250;2024-01-15T05:33:16;-1.70;99.90
67273;DHT22;54190;49.770;9.250;2024-01-15T05:35:42;-1.80;99.90
67273;DHT22;54190;49.770;9.250;2024-01-15T05:38:08;-1.80;99.90
67273;DHT22;54190;49.770;9.250;2024-01-15T05:40:34;-1.80;99.90
67273;DHT22;54190;49.770;9.250;2024-01-15T05:42:59;-1.80;99.90
67273;DHT22;54190;49.770;9.250;2024-01-15T05:45:30;-1.70;99.90
67273;DHT22;54190;49.770;9.250;2024-01-15T05:47:56;-1.70;99.90
67273;DHT22;54190;49.770;9.250;2024-01-15T05:50:22;-1.70;99.90
67273;DHT22;54190;49.770;9.250;2024-01-15T05:52:48;-1.70;99.90
67273;DHT22;54190;49.770;9.250;2024-01-15T05:55:14;-1.60;99.90
67273;DHT22;54190;49.770;9.250;2024-01-15T05:57:40;-1.60;99.90
67273;DHT22;54190;49.770;9.250;2024-01-15T06:00:06;-1.60;99.90
67273;DHT22;54190;49.770;9.250;2024-01-15T06:02:34;-1.60;99.90
67273;DHT22;54190;49.770;9.250;2024-01-15T06:05:00;-1.60;99.90
67273;DHT22;54190;49.770;9.250;2024-01-15T06:07:28;-1.60;99.90
67273;DHT22;54190;49.770;9.250;2024-01-15T06:09:54;-1.70;99.90
67273;DHT22;54190;49.770;9.250;2024-01-15T06:12:22;-1.60;99.90
67273;DHT22;54190;49.770;9.250;2024-01-15T06:14:48;-1.60;99.90
67273;DHT22;54190;49.770;9.250;2024-01-15T06:17:14;-1.60;99.90
67273;DHT22;54190;49.770;9.250;2024-01-15T06:19:39;-1.60;99.90
67273;DHT22;54190;49.770;9.250;2024-01-15T06:22:05;-1.60;99.90
67273;DHT22;54190;49.770;9.250;2024-01-15T06:24:31;-1.60;99.90
67273;DHT22;54190;49.770;9.250;2024-01-15T06:26:57;-1.50;99.90
67273;DHT22;54190;49.770;9.250;2024-01-15T06:29:25;-1.50;99.90
67273;DHT22;54190;49.770;9.250;2024-01-15T06:31:52;-1.60;99.90
67273;DHT22;54190;49.770;9.250;2024-01-15T06:34:17;-1.50;99.90
67273;DHT22;54190;49.770;9.250;2024-01-15T06:36:43;-1.50;99.90
67273;DHT22;54190;49.770;9.250;2024-01-15T06:39:09;-1.50;99.90
67273;DHT22;54190;49.770;9.250;2024-01-15T06:41:35;-1.50;99.90
67273;DHT22;54190;49.770;9.250;2024-01-15T06:44:07;-1.50;99.90
67273;DHT22;54190;49.770;9.250;2024-01-15T06:46:34;-1.40;99.90
67273;DHT22;54190;49.770;9.250;2024-01-15T06:49:00;-1.50;99.90
67273;DHT22;54190;49.770;9.250;2024-01-15T06:51:26;-1.50;99.90
67273;DHT22;54190;49.770;9.250;2024-01-15T06:53:52;-1.50;99.90
67273;DHT22;54190;49.770;9.250;2024-01-15T06:56:17;-1.50;99.90
67273;DHT22;54190;49.770;9.250;2024-01-15T06:58:43;-1.50;99.90
67273;DHT22;54190;49.770;9.250;2024-01-15T07:01:09;-1.50;99.90
67273;DHT22;54190;49.770;9.250;2024-01-15T07:03:35;-1.50;99.90
67273;DHT22;54190;49.770;9.250;2024-01-15T07:06:00;-1.50;99.90
67273;DHT22;54190;49.770;9.250;2024-01-15T07:08:26;-1.50;99.90
67273;DHT22;54190;49.770;9.250;2024-01-15T07:10:52;-1.50;99.90
67273;DHT22;54190;49.770;9.250;2024-01-15T07:13:17;-1.40;99.90
67273;DHT22;54190;49.770;9.250;2024-01-15T07:15:43;-1.50;99.90
67273;DHT22;54190;49.770;9.250;2024-01-15T07:18:09;-1.50;99.90
67273;DHT22;54190;49.770;9.250;2024-01-15T07:20:34;-1.50;99.90
67273;DHT22;54190;49.770;9.250;2024-01-15T07:23:00;-1.40;99.90
67273;DHT22;54190;49.770;9.250;2024-01-15T07:25:26;-1.40;99.90
67273;DHT22;54190;49.770;9.250;2024-01-15T07:27:52;-1.40;99.90
67273;DHT22;54190;49.770;9.250;2024-01-15T07:30:19;-1.40;99.90
67273;DHT22;54190;49.770;9.250;2024-01-15T07:32:47;-1.40;99.90
67273;DHT22;54190;49.770;9.250;2024-01-15T07:35:14;-1.40;99.90
67273;DHT22;54190;49.770;9.250;2024-01-15T07:37:41;-1.40;99.90
67273;DHT22;54190;49.770;9.250;2024-01-15T07:40:07;-1.40;99.90
67273;DHT22;54190;49.770;9.250;2024-01-15T07:42:34;-1.30;99.90
67273;DHT22;54190;49.770;9.250;2024-01-15T07:45:00;-1.40;99.90
67273;DHT22;54190;49.770;9.250;2024-01-15T07:47:26;-1.40;99.90
67273;DHT22;54190;49.770;9.250;2024-01-15T07:49:53;-1.40;99.90
67273;DHT22;54190;49.770;9.250;2024-01-15T07:52:19;-1.40;99.90
67273;DHT22;54190;49.770;9.250;2024-01-15T07:54:45;-1.40;99.90
67273;DHT22;54190;49.770;9.250;2024-01-15T07:57:11;-1.40;99.90
67273;DHT22;54190;49.770;9.250;2024-01-15T07:59:37;-1.40;99.90
67273;DHT22;54190;49.770;9.250;2024-01-15T08:02:03;-1.40;99.90
67273;DHT22;54190;49.770;9.250;2024-01-15T08:04:29;-1.40;99.90
67273;DHT22;54190;49.770;9.250;2024-01-15T08:06:54;-1.40;99.90
67273;DHT22;54190;49.770;9.250;2024-01-15T08:09:21;-1.40;99.90
67273;DHT22;54190;49.770;9.250;2024-01-15T08:11:46;-1.30;99.90
67273;DHT22;54190;49.770;9.250;2024-01-15T08:14:12;-1.40;99.90
67273;DHT22;54190;49.770;9.250;2024-01-15T08:16:39;-1.40;99.90
67273;DHT22;54190;49.770;9.250;2024-01-15T08:19:05;-1.40;99.90
67273;DHT22;54190;49.770;9.250;2024-01-15T08:21:31;-1.40;99.90
67273;DHT22;54190;49.770;9.250;2024-01-15T08:24:01;-1.40;99.90
67273;DHT22;54190;49.770;9.250;2024-01-15T08:26:30;-1.40;99.90
67273;DHT22;54190;49.770;9.250;2024-01-15T08:28:56;-1.30;99.90
67273;DHT22;54190;49.770;9.250;2024-01-15T08:31:22;-1.30;99.90
67273;DHT22;54190;49.770;9.250;2024-01-15T08:33:48;-1.30;99.90
67273;DHT22;54190;49.770;9.250;2024-01-15T08:36:13;-1.30;99.90
67273;DHT22;54190;49.770;9.250;2024-01-15T08:38:39;-1.30;99.90
67273;DHT22;54190;49.770;9.250;2024-01-15T08:41:05;-1.30;99.90
67273;DHT22;54190;49.770;9.250;2024-01-15T08:43:30;-1.30;99.90
67273;DHT22;54190;49.770;9.250;2024-01-15T08:45:57;-1.20;99.90
67273;DHT22;54190;49.770;9.250;2024-01-15T08:48:23;-1.20;99.90
67273;DHT22;54190;49.770;9.250;2024-01-15T08:50:49;-1.10;99.90
67273;DHT22;54190;49.770;9.250;2024-01-15T08:53:14;-1.10;99.90
67273;DHT22;54190;49.770;9.250;2024-01-15T08:55:40;-1.10;99.90
67273;DHT22;54190;49.770;9.250;2024-01-15T08:58:08;-1.00;99.90
67273;DHT22;54190;49.770;9.250;2024-01-15T09:00:34;-1.00;99.90
67273;DHT22;54190;49.770;9.250;2024-01-15T09:02:59;-1.00;99.90
67273;DHT22;54190;49.770;9.250;2024-01-15T09:05:25;-1.00;99.90
67273;DHT22;54190;49.770;9.250;2024-01-15T09:07:51;-0.90;99.90
67273;DHT22;54190;49.770;9.250;2024-01-15T09:10:18;-0.90;99.90
67273;DHT22;54190;49.770;9.250;2024-01-15T09:12:44;-0.80;99.90
67273;DHT22;54190;49.770;9.250;2024-01-15T09:15:09;-0.80;99.90
67273;DHT22;54190;49.770;9.250;2024-01-15T09:17:35;-0.70;99.90
67273;DHT22;54190;49.770;9.250;2024-01-15T09:20:00;-0.70;99.90
67273;DHT22;54190;49.770;9.250;2024-01-15T09:22:26;-0.70;99.90
67273;DHT22;54190;49.770;9.250;2024-01-15T09:24:52;-0.60;99.90
67273;DHT22;54190;49.770;9.250;2024-01-15T09:27:18;-0.60;99.90
67273;DHT22;54190;49.770;9.250;2024-01-15T09:29:44;-0.60;99.90
67273;DHT22;54190;49.770;9.250;2024-01-15T09:32:11;-0.70;99.90
67273;DHT22;54190;49.770;9.250;2024-01-15T09:34:38;-0.70;99.90
67273;DHT22;54190;49.770;9.250;2024-01-15T09:37:04;-0.80;99.90
67273;DHT22;54190;49.770;9.250;2024-01-15T09:39:30;-0.80;99.90
67273;DHT22;54190;49.770;9.250;2024-01-15T09:41:56;-0.80;99.90
67273;DHT22;54190;49.770;9.250;2024-01-15T09:44:23;-0.80;99.90
67273;DHT22;54190;49.770;9.250;2024-01-15T09:46:49;-0.80;99.90
67273;DHT22;54190;49.770;9.250;2024-01-15T09:49:16;-0.80;99.90
67273;DHT22;54190;49.770;9.250;2024-01-15T09:51:42;-0.80;99.90
67273;DHT22;54190;49.770;9.250;2024-01-15T09:54:09;-0.70;99.90
67273;DHT22;54190;49.770;9.250;2024-01-15T09:56:35;-0.70;99.90
67273;DHT22;54190;49.770;9.250;2024-01-15T09:59:02;-0.70;99.90
67273;DHT22;54190;49.770;9.250;2024-01-15T10:01:31;-0.70;99.90
67273;DHT22;54190;49.770;9.250;2024-01-15T10:03:57;-0.70;99.90
67273;DHT22;54190;49.770;9.250;2024-01-15T10:06:27;-0.70;99.90
67273;DHT22;54190;49.770;9.250;2024-01-15T10:08:57;-0.60;99.90
67273;DHT22;54190;49.770;9.250;2024-01-15T10:11:26;-0.60;99.90
67273;DHT22;54190;49.770;9.250;2024-01-15T10:13:52;-0.60;99.90
67273;DHT22;54190;49.770;9.250;2024-01-15T10:16:21;-0.60;99.90
67273;DHT22;54190;49.770;9.250;2024-01-15T10:18:48;-0.60;99.90
67273;DHT22;54190;49.770;9.250;2024-01-15T10:21:14;-0.60;99.90
67273;DHT22;54190;49.770;9.250;2024-01-15T10:23:41;-0.60;99.90
67273;DHT22;54190;49.770;9.250;2024-01-15T10:26:07;-0.60;99.90
67273;DHT22;54190;49.770;9.250;2024-01-15T10:28:32;-0.60;99.90
67273;DHT22;54190;49.770;9.250;2024-01-15T10:30:59;-0.70;99.90
67273;DHT22;54190;49.770;9.250;2024-01-15T10:33:25;-0.60;99.90
67273;DHT22;54190;49.770;9.250;2024-01-15T10:35:53;-0.70;99.90
67273;DHT22;54190;49.770;9.250;2024-01-15T10:38:20;-0.60;99.90
67273;DHT22;54190;49.770;9.250;2024-01-15T10:40:51;-0.60;99.90
67273;DHT22;54190;49.770;9.250;2024-01-15T10:43:17;-0.50;99.90
67273;DHT22;54190;49.770;9.250;2024-01-15T10:45:46;-0.50;99.90
67273;DHT22;54190;49.770;9.250;2024-01-15T10:48:12;-0.50;99.90
67273;DHT22;54190;49.770;9.250;2024-01-15T10:50:37;-0.50;99.90
67273;DHT22;54190;49.770;9.250;2024-01-15T10:53:04;-0.40;99.90
67273;DHT22;54190;49.770;9.250;2024-01-15T10:55:31;-0.30;99.90
67273;DHT22;54190;49.770;9.250;2024-01-15T10:57:58;-0.30;99.90
67273;DHT22;54190;49.770;9.250;2024-01-15T11:00:24;-0.30;99.90
67273;DHT22;54190;49.770;9.250;2024-01-15T11:02:51;-0.30;99.90
67273;DHT22;54190;49.770;9.250;2024-01-15T11:05:21;-0.30;99.90
67273;DHT22;54190;49.770;9.250;2024-01-15T11:07:48;-0.30;99.90
67273;DHT22;54190;49.770;9.250;2024-01-15T11:15:59;-0.10;99.90
67273;DHT22;54190;49.770;9.250;2024-01-15T11:18:30;-0.20;99.90
67273;DHT22;54190;49.770;9.250;2024-01-15T11:23:52;-0.10;99.90
67273;DHT22;54190;49.770;9.250;2024-01-15T11:29:07;-0.10;99.90
67273;DHT22;54190;49.770;9.250;2024-01-15T11:34:06;-0.10;99.90
67273;DHT22;54190;49.770;9.250;2024-01-15T11:42:00;-0.10;99.90
67273;DHT22;54190;49.770;9.250;2024-01-15T11:44:27;-0.10;99.90
67273;DHT22;54190;49.770;9.250;2024-01-15T11:52:18;0.00;99.90
67273;DHT22;54190;49.770;9.250;2024-01-15T11:54:55;0.00;99.90
67273;DHT22;54190;49.770;9.250;2024-01-15T11:57:49;0.00;99.90
67273;DHT22;54190;49.770;9.250;2024-01-15T12:00:15;0.00;99.90
67273;DHT22;54190;49.770;9.250;2024-01-15T12:02:42;-0.10;99.90
67273;DHT22;54190;49.770;9.250;2024-01-15T12:05:12;-0.20;99.90
67273;DHT22;54190;49.770;9.250;2024-01-15T12:07:42;-0.10;99.90
67273;DHT22;54190;49.770;9.250;2024-01-15T12:10:12;-0.10;99.90
67273;DHT22;54190;49.770;9.250;2024-01-15T12:12:59;-0.10;99.90
67273;DHT22;54190;49.770;9.250;2024-01-15T12:15:28;-0.10;99.90
67273;DHT22;54190;49.770;9.250;2024-01-15T12:18:01;-0.10;99.90
67273;DHT22;54190;49.770;9.250;2024-01-15T12:20:29;-0.10;99.90
67273;DHT22;54190;49.770;9.250;2024-01-15T12:22:55;-0.10;99.90
67273;DHT22;54190;49.770;9.250;2024-01-15T12:25:21;-0.10;99.90
67273;DHT22;54190;49.770;9.250;2024-01-15T12:27:48;-0.10;99.90
67273;DHT22;54190;49.770;9.250;2024-01-15T12:30:14;0.00;99.90
67273;DHT22;54190;49.770;9.250;2024-01-15T12:32:41;-0.10;99.90
67273;DHT22;54190;49.770;9.250;2024-01-15T12:35:10;-0.10;99.90
67273;DHT22;54190;49.770;9.250;2024-01-15T12:37:37;-0.10;99.90
67273;DHT22;54190;49.770;9.250;2024-01-15T12:40:04;-0.10;99.90
67273;DHT22;54190;49.770;9.250;2024-01-15T12:42:36;-0.10;99.90
67273;DHT22;54190;49.770;9.250;2024-01-15T12:45:02;-0.10;99.90
67273;DHT22;54190;49.770;9.250;2024-01-15T12:47:30;-0.10;99.90
67273;DHT22;54190;49.770;9.250;2024-01-15T12:49:57;-0.10;99.90
67273;DHT22;54190;49.770;9.250;2024-01-15T12:52:27;-0.10;99.90
67273;DHT22;54190;49.770;9.250;2024-01-15T12:54:52;-0.10;99.90
67273;DHT22;54190;49.770;9.250;2024-01-15T12:57:18;0.00;99.90
67273;DHT22;54190;49.770;9.250;2024-01-15T12:59:45;0.00;99.90
67273;DHT22;54190;49.770;9.250;2024-01-15T13:02:13;0.00;99.90
67273;DHT22;54190;49.770;9.250;2024-01-15T13:04:39;0.00;99.90
67273;DHT22;54190;49.770;9.250;2024-01-15T13:07:06;0.00;99.90
67273;DHT22;54190;49.770;9.250;2024-01-15T13:09:32;0.00;99.90
67273;DHT22;54190;49.770;9.250;2024-01-15T13:11:58;0.00;99.90
67273;DHT22;54190;49.770;9.250;2024-01-15T13:14:24;0.00;99.90
67273;DHT22;54190;49.770;9.250;2024-01-15T13:16:49;-0.10;99.90
67273;DHT22;54190;49.770;9.250;2024-01-15T13:19:15;-0.10;99.90
67273;DHT22;54190;49.770;9.250;2024-01-15T13:21:41;-0.10;99.90
67273;DHT22;54190;49.770;9.250;2024-01-15T13:24:07;0.00;99.90
67273;DHT22;54190;49.770;9.250;2024-01-15T13:26:33;-0.10;99.90
67273;DHT22;54190;49.770;9.250;2024-01-15T13:29:08;-0.10;99.90
67273;DHT22;54190;49.770;9.250;2024-01-15T13:31:33;-0.10;99.90
67273;DHT22;54190;49.770;9.250;2024-01-15T13:33:59;-0.10;99.90
67273;DHT22;54190;49.770;9.250;2024-01-15T13:36:26;-0.10;99.90
67273;DHT22;54190;49.770;9.250;2024-01-15T13:38:52;-0.10;99.90
67273;DHT22;54190;49.770;9.250;2024-01-15T13:41:20;-0.10;99.90
67273;DHT22;54190;49.770;9.250;2024-01-15T13:43:51;-0.10;99.90
67273;DHT22;54190;49.770;9.250;2024-01-15T13:46:19;-0.10;99.90
67273;DHT22;54190;49.770;9.250;2024-01-15T13:48:45;-0.10;99.90
67273;DHT22;54190;49.770;9.250;2024-01-15T13:51:11;0.00;99.90
67273;DHT22;54190;49.770;9.250;2024-01-15T13:53:40;0.00;99.90
67273;DHT22;54190;49.770;9.250;2024-01-15T13:56:06;0.00;99.90
67273;DHT22;54190;49.770;9.250;2024-01-15T13:58:32;0.00;99.90
67273;DHT22;54190;49.770;9.250;2024-01-15T14:00:59;0.00;99.90
67273;DHT22;54190;49.770;9.250;2024-01-15T14:03:24;-0.10;99.90
67273;DHT22;54190;49.770;9.250;2024-01-15T14:05:51;0.00;99.90
67273;DHT22;54190;49.770;9.250;2024-01-15T14:08:17;-0.10;99.90
67273;DHT22;54190;49.770;9.250;2024-01-15T14:10:43;0.00;99.90
67273;DHT22;54190;49.770;9.250;2024-01-15T14:13:08;0.00;99.90
67273;DHT22;54190;49.770;9.250;2024-01-15T14:15:34;0.00;99.90
67273;DHT22;54190;49.770;9.250;2024-01-15T14:18:00;0.00;99.90
67273;DHT22;54190;49.770;9.250;2024-01-15T14:20:26;0.00;99.90
67273;DHT22;54190;49.770;9.250;2024-01-15T14:22:53;0.00;99.90
67273;DHT22;54190;49.770;9.250;2024-01-15T14:25:20;0.10;99.90
67273;DHT22;54190;49.770;9.250;2024-01-15T14:27:45;0.20;99.90
67273;DHT22;54190;49.770;9.250;2024-01-15T14:30:11;0.20;99.90
67273;DHT22;54190;49.770;9.250;2024-01-15T14:32:38;0.20;99.90
67273;DHT22;54190;49.770;9.250;2024-01-15T14:35:05;0.30;99.90
67273;DHT22;54190;49.770;9.250;2024-01-15T14:37:31;0.30;99.90
67273;DHT22;54190;49.770;9.250;2024-01-15T14:39:57;0.30;99.90
67273;DHT22;54190;49.770;9.250;2024-01-15T14:42:22;0.30;99.90
67273;DHT22;54190;49.770;9.250;2024-01-15T14:44:49;0.30;99.90
67273;DHT22;54190;49.770;9.250;2024-01-15T14:47:15;0.30;99.90
67273;DHT22;54190;49.770;9.250;2024-01-15T14:49:41;0.30;99.90
67273;DHT22;54190;49.770;9.250;2024-01-15T14:52:06;0.30;99.90
67273;DHT22;54190;49.770;9.250;2024-01-15T14:54:32;0.20;99.90
67273;DHT22;54190;49.770;9.250;2024-01-15T14:56:58;0.20;99.90
67273;DHT22;54190;49.770;9.250;2024-01-15T14:59:23;0.20;99.90
67273;DHT22;54190;49.770;9.250;2024-01-15T15:01:49;0.20;99.90
67273;DHT22;54190;49.770;9.250;2024-01-15T15:04:15;0.20;99.90
67273;DHT22;54190;49.770;9.250;2024-01-15T15:06:40;0.20;99.90
67273;DHT22;54190;49.770;9.250;2024-01-15T15:09:06;0.20;99.90
67273;DHT22;54190;49.770;9.250;2024-01-15T15:11:35;0.20;99.90
67273;DHT22;54190;49.770;9.250;2024-01-15T15:14:02;0.20;99.90
67273;DHT22;54190;49.770;9.250;2024-01-15T15:16:29;0.20;99.90
67273;DHT22;54190;49.770;9.250;2024-01-15T15:18:55;0.20;99.90
67273;DHT22;54190;49.770;9.250;2024-01-15T15:21:21;0.20;99.90
67273;DHT22;54190;49.770;9.250;2024-01-15T15:23:47;0.30;99.90
67273;DHT22;54190;49.770;9.250;2024-01-15T15:26:13;0.30;99.90
67273;DHT22;54190;49.770;9.250;2024-01-15T15:28:39;0.30;99.90
67273;DHT22;54190;49.770;9.250;2024-01-15T15:31:05;0.30;99.90
67273;DHT22;54190;49.770;9.250;2024-01-15T15:33:34;0.30;99.90
67273;DHT22;54190;49.770;9.250;2024-01-15T15:35:59;0.30;99.90
67273;DHT22;54190;49.770;9.250;2024-01-15T15:38:33;0.30;99.90
67273;DHT22;54190;49.770;9.250;2024-01-15T15:40:59;0.30;99.90
67273;DHT22;54190;49.770;9.250;2024-01-15T15:43:26;0.30;99.90
67273;DHT22;54190;49.770;9.250;2024-01-15T15:45:52;0.30;99.90
67273;DHT22;54190;49.770;9.250;2024-01-15T15:48:17;0.30;99.90
67273;DHT22;54190;49.770;9.250;2024-01-15T15:50:43;0.30;99.90
67273;DHT22;54190;49.770;9.250;2024-01-15T15:53:09;0.30;99.90